createdAt,value
2018-07-22T00:02:25.100Z,92.70
2018-07-22T00:04:53.587Z,92.60
2018-07-22T00:07:22.116Z,92.70
2018-07-22T00:09:50.619Z,92.70
2018-07-22T00:12:19.103Z,92.70
2018-07-22T00:14:47.621Z,92.60
2018-07-22T00:17:16.111Z,92.60
2018-07-22T00:19:44.595Z,92.60
2018-07-22T00:22:13.047Z,92.70
2018-07-22T00:24:41.518Z,92.60
2018-07-22T00:27:10.148Z,92.50
2018-07-22T00:29:38.599Z,92.60
2018-07-22T00:32:07.125Z,92.70
2018-07-22T00:34:35.571Z,92.70
2018-07-22T00:37:04.072Z,92.70
2018-07-22T00:39:32.520Z,92.80
2018-07-22T00:42:01.035Z,92.90
2018-07-22T00:44:29.492Z,92.90
2018-07-22T00:46:57.971Z,92.90
2018-07-22T00:51:55.008Z,92.90
2018-07-22T00:54:23.509Z,92.90
2018-07-22T00:56:52.049Z,92.90
2018-07-22T00:59:20.615Z,92.90
2018-07-22T01:01:49.107Z,92.90
2018-07-22T01:04:17.542Z,92.90
2018-07-22T01:06:46.053Z,92.90
2018-07-22T01:09:14.528Z,92.90
2018-07-22T01:11:43.014Z,92.90
2018-07-22T01:14:11.508Z,92.90
2018-07-22T01:16:40.383Z,93.00
2018-07-22T01:19:08.832Z,92.90
2018-07-22T01:21:37.319Z,92.90
2018-07-22T01:24:05.784Z,92.90
2018-07-22T01:26:34.304Z,92.90
2018-07-22T01:29:03.501Z,92.80
2018-07-22T01:31:32.411Z,92.70
2018-07-22T01:34:00.922Z,92.70
2018-07-22T01:36:29.372Z,92.70
2018-07-22T01:38:57.928Z,92.70
2018-07-22T01:41:26.367Z,92.60
2018-07-22T01:43:54.890Z,92.70
2018-07-22T01:46:23.324Z,92.50
2018-07-22T01:48:51.828Z,92.60
2018-07-22T01:51:20.270Z,92.70
2018-07-22T01:53:48.760Z,92.60
2018-07-22T01:56:17.196Z,92.70
2018-07-22T01:58:45.700Z,92.60
2018-07-22T02:01:14.176Z,92.60
2018-07-22T02:03:42.682Z,92.60
2018-07-22T02:06:11.131Z,92.60
2018-07-22T02:08:39.602Z,92.70
2018-07-22T02:11:08.398Z,92.70
2018-07-22T02:13:36.872Z,92.70
2018-07-22T02:16:05.360Z,92.70
2018-07-22T02:18:33.856Z,92.70
2018-07-22T02:21:02.307Z,92.80
2018-07-22T02:23:30.784Z,92.80
2018-07-22T02:25:59.213Z,92.80
2018-07-22T02:28:27.704Z,92.80
2018-07-22T02:30:56.511Z,92.80
2018-07-22T02:33:25.063Z,92.80
2018-07-22T02:35:53.538Z,92.80
2018-07-22T02:38:22.041Z,92.80
2018-07-22T02:40:50.616Z,92.80
2018-07-22T02:43:19.151Z,92.80
2018-07-22T02:45:47.625Z,92.80
2018-07-22T02:48:16.061Z,92.70
2018-07-22T02:50:44.600Z,92.80
2018-07-22T02:53:13.911Z,92.80
2018-07-22T02:55:42.387Z,92.80
2018-07-22T02:58:10.862Z,92.80
2018-07-22T03:00:39.299Z,92.80
2018-07-22T03:03:07.817Z,92.70
2018-07-22T03:05:36.323Z,92.70
2018-07-22T03:08:05.282Z,92.70
2018-07-22T03:10:33.762Z,92.70
2018-07-22T03:13:02.240Z,92.70
2018-07-22T03:15:30.734Z,92.70
2018-07-22T03:17:59.227Z,92.70
2018-07-22T03:20:27.775Z,92.60
2018-07-22T03:22:56.219Z,92.60
2018-07-22T03:25:24.708Z,92.60
2018-07-22T03:27:53.149Z,92.60
2018-07-22T03:30:21.614Z,92.60
2018-07-22T03:32:50.099Z,92.60
2018-07-22T03:35:18.574Z,92.70
2018-07-22T03:37:47.002Z,92.70
2018-07-22T03:42:43.652Z,92.60
2018-07-22T03:45:12.130Z,92.70
2018-07-22T03:47:40.559Z,92.70
2018-07-22T03:50:09.059Z,92.70
2018-07-22T03:52:37.540Z,92.70
2018-07-22T03:55:06.056Z,92.70
2018-07-22T03:57:34.487Z,92.70
2018-07-22T04:00:03.032Z,92.70
2018-07-22T04:02:31.514Z,92.70
2018-07-22T04:05:00.356Z,92.80
2018-07-22T04:07:28.938Z,92.80
2018-07-22T04:09:57.477Z,92.80
2018-07-22T04:12:25.948Z,92.80
2018-07-22T04:14:54.407Z,92.80
2018-07-22T04:17:22.907Z,92.90
2018-07-22T04:19:51.379Z,92.80
2018-07-22T04:22:19.878Z,92.90
2018-07-22T04:24:48.395Z,92.90
2018-07-22T04:27:16.883Z,93.20
2018-07-22T04:29:45.336Z,92.80
2018-07-22T04:32:13.841Z,92.80
2018-07-22T04:34:42.351Z,92.80
2018-07-22T04:37:10.844Z,92.90
2018-07-22T04:39:39.303Z,92.80
2018-07-22T04:42:07.915Z,92.80
2018-07-22T04:44:36.385Z,92.80
2018-07-22T04:47:04.835Z,92.80
2018-07-22T04:49:33.335Z,92.80
2018-07-22T04:52:02.165Z,92.60
2018-07-22T04:54:30.664Z,92.80
2018-07-22T04:56:59.124Z,92.70
2018-07-22T04:59:27.595Z,92.60
2018-07-22T05:01:56.030Z,92.60
2018-07-22T05:04:24.557Z,92.60
2018-07-22T05:06:52.991Z,92.60
2018-07-22T05:09:21.491Z,92.60
2018-07-22T05:11:49.955Z,92.60
2018-07-22T05:14:18.450Z,92.60
2018-07-22T05:16:46.920Z,92.60
2018-07-22T05:19:15.391Z,92.50
2018-07-22T05:21:43.811Z,92.50
2018-07-22T05:24:12.289Z,92.60
2018-07-22T05:26:40.715Z,92.40
2018-07-22T05:29:09.196Z,92.40
2018-07-22T05:31:37.635Z,92.40
2018-07-22T05:34:06.331Z,92.50
2018-07-22T05:36:34.768Z,92.50
2018-07-22T05:39:03.452Z,92.50
2018-07-22T05:41:31.890Z,92.60
2018-07-22T05:44:00.738Z,92.60
2018-07-22T05:46:29.199Z,92.70
2018-07-22T05:48:57.651Z,92.70
2018-07-22T05:51:26.129Z,92.70
2018-07-22T05:53:54.578Z,92.70
2018-07-22T05:56:23.080Z,92.70
2018-07-22T05:58:51.533Z,92.70
2018-07-22T06:01:20.006Z,92.70
2018-07-22T06:03:48.781Z,92.70
2018-07-22T06:06:17.303Z,92.70
2018-07-22T06:08:45.739Z,92.70
2018-07-22T06:11:14.348Z,92.70
2018-07-22T06:13:42.803Z,92.70
2018-07-22T06:16:11.319Z,92.70
2018-07-22T06:18:39.742Z,92.70
2018-07-22T06:21:08.226Z,92.70
2018-07-22T06:23:36.676Z,92.70
2018-07-22T06:26:05.372Z,92.70
2018-07-22T06:28:33.819Z,92.80
2018-07-22T06:31:02.602Z,92.80
2018-07-22T06:33:31.120Z,92.80
2018-07-22T06:35:59.558Z,92.80
2018-07-22T06:38:28.081Z,92.80
2018-07-22T06:40:56.543Z,92.70
2018-07-22T06:43:25.264Z,92.70
2018-07-22T06:45:53.824Z,92.80
2018-07-22T06:48:22.303Z,92.80
2018-07-22T06:50:51.135Z,92.80
2018-07-22T06:53:19.620Z,92.80
2018-07-22T06:55:48.460Z,92.80
2018-07-22T06:58:16.937Z,92.90
2018-07-22T07:00:45.428Z,92.80
2018-07-22T07:03:14.060Z,92.80
2018-07-22T07:05:42.508Z,92.70
2018-07-22T07:08:11.003Z,92.80
2018-07-22T07:10:39.467Z,92.80
2018-07-22T07:13:07.902Z,92.90
2018-07-22T07:15:36.383Z,92.90
2018-07-22T07:18:04.862Z,92.80
2018-07-22T07:20:33.351Z,92.90
2018-07-22T07:23:01.828Z,92.90
2018-07-22T07:25:30.302Z,92.90
2018-07-22T07:27:58.799Z,92.90
2018-07-22T07:30:27.315Z,92.70
2018-07-22T07:32:55.771Z,92.70
2018-07-22T07:35:24.283Z,92.70
2018-07-22T07:37:52.760Z,92.80
2018-07-22T07:40:21.235Z,92.60
2018-07-22T07:45:17.863Z,92.80
2018-07-22T07:47:46.354Z,92.80
2018-07-22T07:52:42.945Z,92.80
2018-07-22T07:55:11.651Z,93.10
2018-07-22T07:57:40.112Z,92.60
2018-07-22T08:00:08.648Z,92.60
2018-07-22T08:02:37.071Z,92.50
2018-07-22T08:05:05.567Z,92.30
2018-07-22T08:07:35.265Z,92.50
2018-07-22T08:10:03.996Z,92.40
2018-07-22T08:12:32.793Z,92.50
2018-07-22T08:15:01.315Z,92.60
2018-07-22T08:17:30.147Z,92.40
2018-07-22T08:19:58.634Z,92.50
2018-07-22T08:22:27.107Z,92.30
2018-07-22T08:24:55.694Z,92.40
2018-07-22T08:27:24.175Z,92.50
2018-07-22T08:29:52.698Z,92.50
2018-07-22T08:32:21.184Z,92.60
2018-07-22T08:34:49.682Z,92.70
2018-07-22T08:37:18.128Z,92.60
2018-07-22T08:39:46.626Z,92.70
2018-07-22T08:42:16.724Z,92.70
2018-07-22T08:44:45.198Z,92.80
2018-07-22T08:47:13.663Z,92.80
2018-07-22T08:49:42.131Z,92.70
2018-07-22T08:52:10.599Z,92.40
2018-07-22T08:54:39.088Z,92.70
2018-07-22T08:57:07.526Z,92.50
2018-07-22T08:59:36.093Z,92.50
2018-07-22T09:02:05.127Z,92.60
2018-07-22T09:04:33.954Z,92.60
2018-07-22T09:09:30.615Z,92.50
2018-07-22T09:14:27.238Z,92.50
2018-07-22T09:16:56.030Z,92.20
2018-07-22T09:19:24.498Z,92.40
2018-07-22T09:21:52.966Z,92.40
2018-07-22T09:24:21.465Z,92.40
2018-07-22T09:26:49.939Z,92.20
2018-07-22T09:29:18.416Z,92.30
2018-07-22T09:31:46.902Z,92.50
2018-07-22T09:34:15.381Z,92.50
2018-07-22T09:36:43.855Z,92.50
2018-07-22T09:39:12.499Z,92.80
2018-07-22T09:41:41.035Z,92.60
2018-07-22T09:44:09.547Z,92.50
2018-07-22T09:46:38.037Z,92.50
2018-07-22T09:49:06.839Z,92.40
2018-07-22T09:51:35.319Z,92.40
2018-07-22T09:54:03.826Z,92.40
2018-07-22T09:56:32.325Z,92.50
2018-07-22T09:59:00.775Z,92.20
2018-07-22T10:01:29.304Z,92.20
2018-07-22T10:03:57.751Z,92.20
2018-07-22T10:06:26.568Z,92.00
2018-07-22T10:08:55.027Z,92.00
2018-07-22T10:11:23.860Z,91.90
2018-07-22T10:13:52.294Z,91.60
2018-07-22T10:16:20.774Z,91.70
2018-07-22T10:18:49.216Z,91.20
2018-07-22T10:21:17.690Z,91.10
2018-07-22T10:23:46.125Z,91.40
2018-07-22T10:26:14.590Z,90.90
2018-07-22T10:28:43.121Z,90.90
2018-07-22T10:31:11.755Z,91.20
2018-07-22T10:33:40.197Z,91.10
2018-07-22T10:36:08.696Z,91.00
2018-07-22T10:38:37.139Z,90.90
2018-07-22T10:41:05.640Z,90.80
2018-07-22T10:43:34.080Z,91.00
2018-07-22T10:46:02.601Z,91.30
2018-07-22T10:48:31.911Z,90.70
2018-07-22T10:51:00.522Z,90.90
2018-07-22T10:53:29.169Z,91.00
2018-07-22T10:55:57.883Z,91.10
2018-07-22T10:58:26.338Z,90.90
2018-07-22T11:00:54.800Z,90.30
2018-07-22T11:03:23.345Z,90.60
2018-07-22T11:05:51.990Z,90.60
2018-07-22T11:08:20.516Z,90.20
2018-07-22T11:10:49.317Z,90.00
2018-07-22T11:13:18.168Z,90.30
2018-07-22T11:15:46.991Z,89.10
2018-07-22T11:18:15.499Z,87.40
2018-07-22T11:20:43.961Z,87.50
2018-07-22T11:23:12.435Z,87.00
2018-07-22T11:25:40.893Z,86.70
2018-07-22T11:28:09.375Z,85.80
2018-07-22T11:30:37.859Z,86.70
2018-07-22T11:33:06.344Z,84.90
2018-07-22T11:35:34.795Z,85.50
2018-07-22T11:38:03.298Z,83.70
2018-07-22T11:40:31.752Z,83.80
2018-07-22T11:43:00.247Z,84.50
2018-07-22T11:45:28.679Z,85.10
2018-07-22T11:47:57.147Z,85.10
2018-07-22T11:50:25.646Z,84.20
2018-07-22T11:52:54.291Z,84.40
2018-07-22T11:57:50.909Z,83.80
2018-07-22T12:00:19.338Z,83.80
2018-07-22T12:02:47.815Z,84.20
2018-07-22T12:05:16.243Z,82.50
2018-07-22T12:07:44.855Z,83.00
2018-07-22T12:10:13.402Z,83.10
2018-07-22T12:12:41.851Z,80.60
2018-07-22T12:15:10.339Z,81.80
2018-07-22T12:17:38.834Z,81.20
2018-07-22T12:20:07.643Z,80.40
2018-07-22T12:22:36.136Z,80.10
2018-07-22T12:25:04.688Z,80.80
2018-07-22T12:27:33.153Z,81.40
2018-07-22T12:30:01.664Z,80.30
2018-07-22T12:32:30.119Z,79.30
2018-07-22T12:34:58.583Z,77.90
2018-07-22T12:37:27.039Z,78.70
2018-07-22T12:39:55.590Z,79.50
2018-07-22T12:42:24.075Z,79.80
2018-07-22T12:44:52.705Z,78.80
2018-07-22T12:47:21.252Z,79.20
2018-07-22T12:49:49.747Z,80.00
2018-07-22T12:52:18.229Z,78.90
2018-07-22T12:54:46.717Z,78.20
2018-07-22T12:57:15.183Z,78.80
2018-07-22T12:59:43.672Z,76.40
2018-07-22T13:04:40.613Z,76.40
2018-07-22T13:07:09.079Z,74.60
2018-07-22T13:09:37.578Z,77.00
2018-07-22T13:12:06.039Z,76.00
2018-07-22T13:14:34.532Z,73.80
2018-07-22T13:17:02.972Z,74.70
2018-07-22T13:19:31.413Z,74.60
2018-07-22T13:21:59.899Z,74.60
2018-07-22T13:24:28.364Z,73.80
2018-07-22T13:26:56.852Z,74.60
2018-07-22T13:29:25.358Z,75.50
2018-07-22T13:31:53.843Z,75.60
2018-07-22T13:34:22.330Z,76.70
2018-07-22T13:36:50.779Z,75.00
2018-07-22T13:39:19.251Z,73.90
2018-07-22T13:41:47.691Z,73.40
2018-07-22T13:44:16.160Z,73.60
2018-07-22T13:46:44.951Z,73.40
2018-07-22T13:49:13.386Z,73.90
2018-07-22T13:51:41.867Z,74.20
2018-07-22T13:54:10.330Z,73.00
2018-07-22T13:56:38.799Z,72.40
2018-07-22T13:59:07.385Z,72.20
2018-07-22T14:01:35.830Z,73.80
2018-07-22T14:04:04.625Z,72.60
2018-07-22T14:06:33.147Z,73.40
2018-07-22T14:09:01.596Z,73.10
2018-07-22T14:11:30.064Z,72.10
2018-07-22T14:13:58.824Z,72.50
2018-07-22T14:16:27.696Z,71.90
2018-07-22T14:18:56.138Z,71.20
2018-07-22T14:21:24.657Z,71.00
2018-07-22T14:23:53.141Z,72.00
2018-07-22T14:26:22.031Z,71.10
2018-07-22T14:28:50.539Z,70.50
2018-07-22T14:31:19.196Z,70.80
2018-07-22T14:33:47.674Z,70.20
2018-07-22T14:36:16.209Z,71.40
2018-07-22T14:38:44.768Z,71.60
2018-07-22T14:41:13.263Z,72.60
2018-07-22T14:43:41.735Z,72.10
2018-07-22T14:46:10.347Z,72.90
2018-07-22T14:48:38.792Z,71.70
2018-07-22T14:51:07.398Z,71.90
2018-07-22T14:53:35.901Z,71.00
2018-07-22T14:56:04.712Z,71.40
2018-07-22T14:58:33.199Z,70.30
2018-07-22T15:01:01.683Z,69.30
2018-07-22T15:03:30.495Z,68.90
2018-07-22T15:05:58.965Z,68.80
2018-07-22T15:08:27.467Z,69.40
2018-07-22T15:10:56.011Z,70.70
2018-07-22T15:13:24.641Z,70.80
2018-07-22T15:15:53.122Z,70.50
2018-07-22T15:18:21.699Z,70.50
2018-07-22T15:20:50.302Z,69.70
2018-07-22T15:23:19.010Z,68.60
2018-07-22T15:25:47.881Z,68.70
2018-07-22T15:28:16.411Z,68.40
2018-07-22T15:30:44.855Z,69.70
2018-07-22T15:33:13.385Z,69.70
2018-07-22T15:35:41.938Z,70.20
2018-07-22T15:38:10.801Z,70.20
2018-07-22T15:40:39.612Z,70.40
2018-07-22T15:43:08.139Z,70.70
2018-07-22T15:45:36.731Z,70.70
2018-07-22T15:48:05.784Z,70.70
2018-07-22T15:50:34.235Z,70.20
2018-07-22T15:53:02.727Z,71.40
2018-07-22T15:55:31.380Z,71.50
2018-07-22T15:57:59.855Z,71.50
2018-07-22T16:00:28.360Z,71.20
2018-07-22T16:02:56.850Z,70.40
2018-07-22T16:05:25.994Z,71.40
2018-07-22T16:07:54.487Z,71.00
2018-07-22T16:10:22.949Z,71.20
2018-07-22T16:12:51.608Z,71.60
2018-07-22T16:15:20.451Z,71.70
2018-07-22T16:17:48.927Z,72.40
2018-07-22T16:20:17.358Z,71.90
2018-07-22T16:22:45.906Z,71.40
2018-07-22T16:25:14.668Z,70.90
2018-07-22T16:27:43.207Z,70.90
2018-07-22T16:30:11.652Z,71.20
2018-07-22T16:32:40.126Z,70.70
2018-07-22T16:37:37.674Z,71.70
2018-07-22T16:40:06.496Z,72.10
2018-07-22T16:42:35.031Z,71.60
2018-07-22T16:45:03.874Z,71.80
2018-07-22T16:47:32.954Z,72.60
2018-07-22T16:50:01.449Z,72.00
2018-07-22T16:52:29.934Z,71.50
2018-07-22T16:54:58.381Z,71.60
2018-07-22T16:57:26.986Z,72.40
2018-07-22T16:59:55.568Z,72.40
2018-07-22T17:02:24.038Z,72.40
2018-07-22T17:04:52.472Z,71.90
2018-07-22T17:07:21.003Z,72.70
2018-07-22T17:09:49.616Z,72.80
2018-07-22T17:12:18.055Z,73.00
2018-07-22T17:14:46.535Z,72.80
2018-07-22T17:17:15.010Z,72.00
2018-07-22T17:19:43.462Z,72.10
2018-07-22T17:22:11.922Z,72.50
2018-07-22T17:24:40.415Z,73.10
2018-07-22T17:27:09.026Z,73.80
2018-07-22T17:29:37.491Z,73.50
2018-07-22T17:32:06.235Z,73.40
2018-07-22T17:34:34.934Z,73.80
2018-07-22T17:37:03.591Z,74.00
2018-07-22T17:39:32.087Z,74.30
2018-07-22T17:42:00.667Z,74.80
2018-07-22T17:44:29.294Z,75.10
2018-07-22T17:46:58.771Z,76.10
2018-07-22T17:49:27.406Z,75.70
2018-07-22T17:51:55.873Z,76.00
2018-07-22T17:54:24.424Z,76.30
2018-07-22T17:56:52.915Z,76.30
2018-07-22T17:59:21.395Z,76.70
2018-07-22T18:01:49.861Z,77.00
2018-07-22T18:04:18.328Z,77.40
2018-07-22T18:06:46.925Z,77.70
2018-07-22T18:09:15.445Z,78.00
2018-07-22T18:11:43.899Z,78.30
2018-07-22T18:14:12.440Z,78.30
2018-07-22T18:16:41.347Z,78.60
2018-07-22T18:19:11.010Z,78.70
2018-07-22T18:21:39.823Z,78.60
2018-07-22T18:24:08.912Z,78.30
2018-07-22T18:26:37.458Z,78.50
2018-07-22T18:29:06.439Z,78.40
2018-07-22T18:31:35.674Z,78.70
2018-07-22T18:34:04.502Z,78.60
2018-07-22T18:36:33.363Z,78.80
2018-07-22T18:39:03.029Z,78.60
2018-07-22T18:41:32.362Z,78.80
2018-07-22T18:44:00.878Z,78.90
2018-07-22T18:46:29.529Z,78.80
2018-07-22T18:51:26.860Z,79.10
2018-07-22T18:53:55.359Z,79.30
2018-07-22T18:56:23.814Z,79.60
2018-07-22T18:58:52.390Z,79.70
2018-07-22T19:01:21.216Z,79.80
2018-07-22T19:03:49.678Z,80.00
2018-07-22T19:06:18.387Z,80.10
2018-07-22T19:08:47.155Z,80.90
2018-07-22T19:11:16.397Z,80.40
2018-07-22T19:13:44.840Z,80.50
2018-07-22T19:16:13.551Z,80.80
2018-07-22T19:18:42.152Z,81.00
2018-07-22T19:21:10.831Z,81.10
2018-07-22T19:23:39.774Z,81.50
2018-07-22T19:26:08.438Z,81.60
2018-07-22T19:28:37.365Z,81.80
2018-07-22T19:31:06.068Z,82.20
2018-07-22T19:33:34.969Z,82.30
2018-07-22T19:36:03.590Z,82.50
2018-07-22T19:38:32.150Z,82.60
2018-07-22T19:41:01.169Z,82.70
2018-07-22T19:43:29.696Z,82.60
2018-07-22T19:45:58.196Z,82.70
2018-07-22T19:48:26.673Z,82.80
2018-07-22T19:50:55.260Z,83.00
2018-07-22T19:53:24.282Z,83.00
2018-07-22T19:55:52.762Z,83.20
2018-07-22T19:58:21.821Z,83.10
2018-07-22T20:00:51.539Z,83.30
2018-07-22T20:03:20.029Z,83.30
2018-07-22T20:05:48.843Z,83.50
2018-07-22T20:08:17.679Z,83.50
2018-07-22T20:10:46.461Z,83.80
2018-07-22T20:13:15.125Z,84.20
2018-07-22T20:15:43.735Z,84.20
2018-07-22T20:18:12.887Z,84.40
2018-07-22T20:20:41.796Z,84.60
2018-07-22T20:23:10.529Z,85.00
2018-07-22T20:25:39.200Z,85.20
2018-07-22T20:28:07.843Z,85.40
2018-07-22T20:30:36.404Z,86.10
2018-07-22T20:33:04.915Z,86.50
2018-07-22T20:35:33.784Z,86.70
2018-07-22T20:38:04.931Z,86.70
2018-07-22T20:40:33.479Z,87.10
2018-07-22T20:43:01.946Z,87.20
2018-07-22T20:45:30.418Z,87.40
2018-07-22T20:47:58.846Z,87.70
2018-07-22T20:50:27.347Z,88.00
2018-07-22T20:52:55.780Z,88.40
2018-07-22T20:55:24.337Z,88.60
2018-07-22T20:57:52.787Z,88.80
2018-07-22T21:00:21.272Z,88.80
2018-07-22T21:02:49.706Z,88.90
2018-07-22T21:05:18.200Z,89.10
2018-07-22T21:07:46.639Z,89.10
2018-07-22T21:10:15.248Z,89.00
2018-07-22T21:12:55.778Z,89.00
2018-07-22T21:15:24.306Z,89.10
2018-07-22T21:17:53.009Z,89.10
2018-07-22T21:20:22.079Z,89.40
2018-07-22T21:22:50.563Z,89.30
2018-07-22T21:25:19.462Z,89.40
2018-07-22T21:27:48.022Z,89.50
2018-07-22T21:30:16.596Z,89.60
2018-07-22T21:32:45.451Z,89.70
2018-07-22T21:35:13.958Z,89.80
2018-07-22T21:37:42.835Z,90.00
2018-07-22T21:40:11.291Z,90.00
2018-07-22T21:42:39.782Z,90.00
2018-07-22T21:45:08.878Z,90.00
2018-07-22T21:47:37.492Z,90.00
2018-07-22T21:50:06.456Z,89.90
2018-07-22T21:52:34.991Z,89.70
2018-07-22T21:55:03.554Z,89.50
2018-07-22T21:57:32.047Z,89.40
2018-07-22T22:00:00.527Z,89.60
2018-07-22T22:02:32.270Z,89.40
2018-07-22T22:05:02.870Z,89.40
2018-07-22T22:07:31.841Z,89.40
2018-07-22T22:10:00.984Z,89.40
2018-07-22T22:12:29.980Z,89.70
2018-07-22T22:14:58.458Z,89.40
2018-07-22T22:17:26.949Z,90.20
2018-07-22T22:19:55.423Z,89.70
2018-07-22T22:22:23.952Z,89.70
2018-07-22T22:24:52.795Z,89.70
2018-07-22T22:27:21.340Z,89.80
2018-07-22T22:32:18.173Z,89.80
2018-07-22T22:34:46.624Z,90.00
2018-07-22T22:37:15.076Z,90.10
2018-07-22T22:39:43.915Z,90.20
2018-07-22T22:42:12.429Z,90.10
2018-07-22T22:47:09.007Z,90.30
2018-07-22T22:49:37.477Z,90.40
2018-07-22T22:52:06.353Z,90.40
2018-07-22T22:57:02.991Z,90.50
2018-07-22T22:59:31.471Z,90.50
2018-07-22T23:01:59.985Z,90.60
2018-07-22T23:04:28.865Z,90.60
2018-07-22T23:06:57.326Z,90.70
2018-07-22T23:09:25.848Z,90.80
2018-07-22T23:11:54.311Z,90.80
2018-07-22T23:14:22.820Z,90.90
2018-07-22T23:16:51.618Z,90.90
2018-07-22T23:19:20.115Z,91.00
2018-07-22T23:21:48.594Z,90.90
2018-07-22T23:24:17.134Z,91.00
2018-07-22T23:26:45.613Z,91.10
2018-07-22T23:29:14.447Z,91.10
2018-07-22T23:31:42.964Z,91.20
2018-07-22T23:34:11.814Z,91.30
2018-07-22T23:36:40.299Z,91.30
2018-07-22T23:39:09.659Z,91.40
2018-07-22T23:41:38.125Z,91.30
2018-07-22T23:44:08.002Z,91.70
2018-07-22T23:46:37.315Z,91.20
2018-07-22T23:49:06.070Z,91.30
2018-07-22T23:51:34.567Z,91.20
2018-07-22T23:54:03.045Z,91.20
2018-07-22T23:56:31.550Z,91.30
2018-07-22T23:59:00.059Z,91.40
